Time;durP1;ratioP1;P1;durP2;ratioP2;P2;SDS_P1;SDS_P2;PMS_P1;PMS_P2;Temp;Humidity;BMP_temperature;BMP_pressure;BME280_temperature;BME280_humidity;BME280_pressure;Samples;Min_cycle;Max_cycle;Signal;HPM_P1;HPM_P2
2021/04/21 00:01:29;;;;;;;16.65;11.45;;;;;;;;;;4914218;29;20103;-72
2021/04/21 00:03:55;;;;;;;17.70;12.23;;;;;;;;;;4914168;29;20064;-72
2021/04/21 00:06:21;;;;;;;15.60;11.32;;;;;;;;;;4912527;29;20052;-72
2021/04/21 00:08:47;;;;;;;15.60;11.93;;;;;;;;;;4910593;29;20678;-72
2021/04/21 00:11:14;;;;;;;15.18;11.45;;;;;;;;;;4914249;29;20404;-72
2021/04/21 00:13:42;;;;;;;15.13;11.18;;;;;;;;;;4913954;29;20059;-72
2021/04/21 00:16:11;;;;;;;15.75;11.68;;;;;;;;;;4913532;29;20048;-72
2021/04/21 00:18:39;;;;;;;19.23;13.00;;;;;;;;;;4914358;29;20052;-72
2021/04/21 00:21:05;;;;;;;24.35;13.30;;;;;;;;;;4908518;29;20464;-72
2021/04/21 00:23:34;;;;;;;14.95;11.93;;;;;;;;;;4898704;29;20052;-72
2021/04/21 00:26:01;;;;;;;19.25;13.25;;;;;;;;;;4898120;29;20104;-72
2021/04/21 00:28:32;;;;;;;18.83;12.88;;;;;;;;;;4898458;29;20049;-72
2021/04/21 00:31:01;;;;;;;20.98;12.65;;;;;;;;;;4898445;29;20052;-73
2021/04/21 00:33:27;;;;;;;17.95;13.02;;;;;;;;;;4898618;29;20500;-72
2021/04/21 00:35:54;;;;;;;20.17;12.73;;;;;;;;;;4898019;29;20049;-72
2021/04/21 00:38:21;;;;;;;20.20;12.60;;;;;;;;;;4898533;29;20104;-72
2021/04/21 00:41:11;;;;;;;18.10;12.38;;;;;;;;;;4898295;29;20492;-72
2021/04/21 00:43:46;;;;;;;16.92;12.63;;;;;;;;;;4925205;29;20104;-72
2021/04/21 00:46:32;;;;;;;15.93;11.95;;;;;;;;;;4931693;29;20048;-72
2021/04/21 00:49:16;;;;;;;19.05;12.23;;;;;;;;;;4916995;29;20055;-72
2021/04/21 00:52:05;;;;;;;20.13;13.07;;;;;;;;;;4916917;29;20092;-72
2021/04/21 00:54:41;;;;;;;17.85;11.20;;;;;;;;;;4918234;29;20102;-72
2021/04/21 00:57:26;;;;;;;18.70;12.60;;;;;;;;;;4915258;29;20049;-72
2021/04/21 01:00:19;;;;;;;19.50;12.63;;;;;;;;;;4916846;29;20127;-72
2021/04/21 01:02:56;;;;;;;17.58;11.90;;;;;;;;;;4913072;29;20087;-72
2021/04/21 01:05:28;;;;;;;16.90;12.55;;;;;;;;;;4932104;29;20056;-72
2021/04/21 01:07:58;;;;;;;17.02;12.45;;;;;;;;;;4916788;29;20131;-72
2021/04/21 01:10:28;;;;;;;17.95;12.02;;;;;;;;;;4913606;29;20116;-72
2021/04/21 01:12:54;;;;;;;18.40;13.07;;;;;;;;;;4897807;29;20053;-71
2021/04/21 01:15:20;;;;;;;17.02;12.10;;;;;;;;;;4897194;29;20409;-72
2021/04/21 01:17:47;;;;;;;18.25;12.93;;;;;;;;;;4897817;29;20113;-72
2021/04/21 01:20:28;;;;;;;17.40;12.00;;;;;;;;;;4913484;29;20084;-72
2021/04/21 01:23:13;;;;;;;19.27;12.23;;;;;;;;;;4897660;29;20135;-72
2021/04/21 01:26:27;;;;;;;21.05;13.02;;;;;;;;;;4911522;29;20083;-72
2021/04/21 01:28:54;;;;;;;20.13;12.00;;;;;;;;;;4901575;29;20055;-72
2021/04/21 01:31:22;;;;;;;20.08;13.30;;;;;;;;;;4916278;29;20052;-72
2021/04/21 01:33:49;;;;;;;18.02;12.40;;;;;;;;;;4916186;29;20475;-72
2021/04/21 01:36:19;;;;;;;22.25;11.75;;;;;;;;;;4915890;29;20103;-71
2021/04/21 01:38:46;;;;;;;23.73;13.82;;;;;;;;;;4915571;29;20048;-72
2021/04/21 01:41:16;;;;;;;19.02;13.00;;;;;;;;;;4916396;29;20467;-72
2021/04/21 01:43:55;;;;;;;22.73;13.52;;;;;;;;;;4915972;29;20130;-72
2021/04/21 01:46:21;;;;;;;23.75;13.27;;;;;;;;;;4899990;29;20067;-72
2021/04/21 01:48:47;;;;;;;20.75;13.50;;;;;;;;;;4915910;29;20059;-72
2021/04/21 01:51:22;;;;;;;21.90;14.85;;;;;;;;;;4916072;29;20111;-72
2021/04/21 01:53:52;;;;;;;23.27;14.35;;;;;;;;;;4902603;29;20052;-72
2021/04/21 01:56:32;;;;;;;20.35;13.93;;;;;;;;;;4881077;29;20108;-72
2021/04/21 01:59:35;;;;;;;22.52;13.48;;;;;;;;;;4896956;29;20712;-72
2021/04/21 02:02:24;;;;;;;19.95;13.70;;;;;;;;;;4858553;29;20049;-72
2021/04/21 02:05:19;;;;;;;23.10;13.60;;;;;;;;;;4910642;29;20532;-72
2021/04/21 02:08:10;;;;;;;21.10;14.38;;;;;;;;;;4912379;29;20052;-72
2021/04/21 02:10:55;;;;;;;19.92;13.25;;;;;;;;;;4897952;29;20052;-72
2021/04/21 02:13:32;;;;;;;17.83;12.52;;;;;;;;;;4896874;29;20052;-72
2021/04/21 02:16:18;;;;;;;19.45;12.93;;;;;;;;;;4895910;29;20513;-72
2021/04/21 02:19:35;;;;;;;18.45;13.27;;;;;;;;;;4912274;29;20136;-72
2021/04/21 02:22:32;;;;;;;19.40;12.88;;;;;;;;;;4895730;29;20111;-72
2021/04/21 02:25:24;;;;;;;19.35;12.93;;;;;;;;;;4897777;29;20100;-71
2021/04/21 02:27:59;;;;;;;19.00;13.60;;;;;;;;;;4912106;29;20064;-72
2021/04/21 02:30:36;;;;;;;20.83;13.38;;;;;;;;;;4928901;29;20103;-72
2021/04/21 02:33:08;;;;;;;20.70;13.95;;;;;;;;;;4930019;29;20551;-72
2021/04/21 02:35:42;;;;;;;24.15;14.50;;;;;;;;;;4914651;29;20056;-72
2021/04/21 02:38:25;;;;;;;23.17;15.10;;;;;;;;;;4915106;29;20499;-72
2021/04/21 02:41:14;;;;;;;22.98;14.38;;;;;;;;;;4915240;29;20051;-72
2021/04/21 02:43:59;;;;;;;23.95;15.35;;;;;;;;;;4914222;29;20083;-72
2021/04/21 02:46:37;;;;;;;21.20;13.75;;;;;;;;;;4896643;29;20135;-73
2021/04/21 02:49:09;;;;;;;20.10;14.13;;;;;;;;;;4954566;23;20051;-74
2021/04/21 02:51:46;;;;;;;25.92;16.13;;;;;;;;;;4954222;29;20047;-74
2021/04/21 02:54:37;;;;;;;24.00;15.05;;;;;;;;;;4937318;29;20078;-74
2021/04/21 02:57:49;;;;;;;23.02;14.18;;;;;;;;;;4953171;29;20493;-71
2021/04/21 03:00:32;;;;;;;23.98;14.18;;;;;;;;;;4939640;29;20086;-71
2021/04/21 03:03:17;;;;;;;;;;;;;;;;;;4937400;29;20055;-71
2021/04/21 03:06:08;;;;;;;21.73;13.27;;;;;;;;;;4953529;29;19984;-71
2021/04/21 03:08:41;;;;;;;16.42;12.10;;;;;;;;;;4936224;29;20399;-71
2021/04/21 03:11:21;;;;;;;21.52;14.25;;;;;;;;;;4937052;29;20075;-71
2021/04/21 03:13:54;;;;;;;23.85;14.40;;;;;;;;;;4952747;29;20102;-71
2021/04/21 03:16:21;;;;;;;22.65;14.68;;;;;;;;;;4952099;29;20051;-72
2021/04/21 03:18:48;;;;;;;23.85;14.07;;;;;;;;;;4936553;29;20051;-71
2021/04/21 03:21:23;;;;;;;26.90;15.65;;;;;;;;;;4936871;29;20458;-71
2021/04/21 03:23:59;;;;;;;25.15;15.52;;;;;;;;;;4936647;29;20531;-71
2021/04/21 03:26:25;;;;;;;27.50;15.40;;;;;;;;;;4936288;29;20098;-71
2021/04/21 03:28:54;;;;;;;22.25;15.10;;;;;;;;;;4936739;29;20051;-71
2021/04/21 03:31:20;;;;;;;22.55;14.90;;;;;;;;;;4936563;29;20051;-71
2021/04/21 03:33:51;;;;;;;22.30;15.15;;;;;;;;;;4936522;29;20058;-71
2021/04/21 03:36:18;;;;;;;21.58;14.85;;;;;;;;;;4952158;29;20055;-71
2021/04/21 03:38:46;;;;;;;25.80;15.73;;;;;;;;;;4952291;29;20113;-71
2021/04/21 03:41:13;;;;;;;25.02;15.57;;;;;;;;;;4936703;29;20447;-71
2021/04/21 03:43:43;;;;;;;22.88;15.82;;;;;;;;;;4953479;29;20051;-71
2021/04/21 03:46:12;;;;;;;25.48;14.95;;;;;;;;;;4948415;29;20102;-71
2021/04/21 03:48:39;;;;;;;25.30;16.55;;;;;;;;;;4917076;29;20104;-71
2021/04/21 03:51:06;;;;;;;24.77;16.13;;;;;;;;;;4933286;29;20414;-71
2021/04/21 03:53:39;;;;;;;26.60;14.88;;;;;;;;;;4934818;29;20102;-71
2021/04/21 03:56:11;;;;;;;19.20;11.93;;;;;;;;;;4938013;29;20111;-71
2021/04/21 03:58:38;;;;;;;21.73;15.68;;;;;;;;;;4952954;29;20518;-71
2021/04/21 04:01:07;;;;;;;22.08;14.57;;;;;;;;;;4940687;29;20074;-71
2021/04/21 04:03:34;;;;;;;25.58;15.30;;;;;;;;;;4940443;29;20090;-71
2021/04/21 04:06:00;;;;;;;25.17;16.60;;;;;;;;;;4939689;29;20063;-71
2021/04/21 04:08:27;;;;;;;20.65;13.70;;;;;;;;;;4957215;29;20557;-71
2021/04/21 04:10:53;;;;;;;21.60;15.20;;;;;;;;;;4924055;29;20142;-71
2021/04/21 04:13:19;;;;;;;23.52;14.90;;;;;;;;;;4957343;29;20118;-71
2021/04/21 04:15:49;;;;;;;23.17;14.35;;;;;;;;;;4923822;29;20047;-71
2021/04/21 04:18:16;;;;;;;21.60;14.00;;;;;;;;;;4924297;29;20532;-71
2021/04/21 04:20:43;;;;;;;24.50;14.48;;;;;;;;;;4939841;29;20047;-71
2021/04/21 04:23:11;;;;;;;22.58;13.60;;;;;;;;;;4939978;29;20058;-71
2021/04/21 04:25:39;;;;;;;23.75;14.82;;;;;;;;;;4956282;29;20094;-71
2021/04/21 04:28:07;;;;;;;23.42;14.98;;;;;;;;;;4939871;29;20047;-71
2021/04/21 04:30:33;;;;;;;25.30;15.57;;;;;;;;;;4956769;29;20043;-71
2021/04/21 04:33:00;;;;;;;22.98;15.25;;;;;;;;;;4956783;29;20098;-71
2021/04/21 04:35:26;;;;;;;27.30;15.25;;;;;;;;;;4939160;29;20085;-71
2021/04/21 04:37:56;;;;;;;26.02;15.57;;;;;;;;;;4956511;29;20055;-71
2021/04/21 04:40:22;;;;;;;23.08;14.88;;;;;;;;;;4939600;29;20086;-71
2021/04/21 04:42:48;;;;;;;24.27;15.45;;;;;;;;;;4956495;29;20059;-71
2021/04/21 04:45:15;;;;;;;26.42;15.48;;;;;;;;;;4955051;29;20580;-71
2021/04/21 04:47:46;;;;;;;27.70;17.88;;;;;;;;;;4954869;29;20524;-71
2021/04/21 04:50:19;;;;;;;27.25;18.40;;;;;;;;;;4939373;29;20058;-71
2021/04/21 04:52:47;;;;;;;28.65;18.33;;;;;;;;;;4939258;29;20383;-72
2021/04/21 04:55:15;;;;;;;31.30;18.90;;;;;;;;;;4954812;29;20465;-71
2021/04/21 04:57:47;;;;;;;28.75;17.98;;;;;;;;;;4956364;29;20086;-71
2021/04/21 05:00:18;;;;;;;30.65;19.70;;;;;;;;;;4956295;29;20079;-71
2021/04/21 05:03:07;;;;;;;30.27;18.70;;;;;;;;;;4956172;29;20059;-71
2021/04/21 05:05:35;;;;;;;26.90;18.52;;;;;;;;;;4954232;28;20047;-71
2021/04/21 05:08:10;;;;;;;25.30;17.38;;;;;;;;;;4956421;29;20062;-71
2021/04/21 05:10:40;;;;;;;23.95;15.63;;;;;;;;;;4955419;29;20047;-71
2021/04/21 05:13:10;;;;;;;28.02;17.45;;;;;;;;;;4939113;29;20051;-71
2021/04/21 05:15:39;;;;;;;27.75;17.17;;;;;;;;;;4937620;29;20079;-71
2021/04/21 05:18:33;;;;;;;26.40;17.08;;;;;;;;;;4937319;29;20055;-71
2021/04/21 05:21:37;;;;;;;27.50;17.55;;;;;;;;;;4936873;29;20051;-71
2021/04/21 05:24:18;;;;;;;31.98;16.55;;;;;;;;;;4936626;29;20107;-71
2021/04/21 05:27:24;;;;;;;23.77;16.88;;;;;;;;;;4936272;29;20075;-71
2021/04/21 05:30:21;;;;;;;27.73;16.90;;;;;;;;;;4891136;29;20079;-71
2021/04/21 05:33:14;;;;;;;27.58;20.08;;;;;;;;;;4919873;29;20082;-71
2021/04/21 05:36:07;;;;;;;28.73;19.33;;;;;;;;;;4934940;29;20472;-71
2021/04/21 05:39:00;;;;;;;30.38;19.90;;;;;;;;;;4936575;29;20044;-71
2021/04/21 05:41:56;;;;;;;27.45;17.98;;;;;;;;;;4921302;29;20495;-71
2021/04/21 05:44:59;;;;;;;30.25;17.02;;;;;;;;;;4922041;29;20051;-71
2021/04/21 05:47:49;;;;;;;27.90;17.33;;;;;;;;;;4955026;29;20118;-70
2021/04/21 05:50:36;;;;;;;30.00;17.85;;;;;;;;;;4954196;29;20098;-73
2021/04/21 05:53:30;;;;;;;29.27;19.20;;;;;;;;;;4952515;29;20569;-70
2021/04/21 05:56:33;;;;;;;29.02;17.58;;;;;;;;;;4952520;29;20090;-70
2021/04/21 05:59:31;;;;;;;28.35;18.25;;;;;;;;;;4934007;29;20578;-70
2021/04/21 06:01:57;;;;;;;27.42;18.17;;;;;;;;;;4920450;29;20051;-70
2021/04/21 06:04:24;;;;;;;33.17;18.83;;;;;;;;;;4936032;29;20055;-72
2021/04/21 06:07:09;;;;;;;28.30;18.83;;;;;;;;;;4919500;29;20054;-72
2021/04/21 06:09:36;;;;;;;29.20;18.63;;;;;;;;;;4951915;29;20062;-72
2021/04/21 06:12:09;;;;;;;28.45;18.75;;;;;;;;;;4952771;29;20078;-71
2021/04/21 06:14:36;;;;;;;;;;;;;;;;;;4952428;29;20498;-72
2021/04/21 06:17:02;;;;;;;32.10;18.92;;;;;;;;;;4951510;28;19997;-71
2021/04/21 06:19:28;;;;;;;32.33;20.42;;;;;;;;;;4952504;29;20138;-72
2021/04/21 06:21:54;;;;;;;33.72;19.02;;;;;;;;;;4952713;29;20096;-72
2021/04/21 06:24:29;;;;;;;32.15;19.20;;;;;;;;;;4935724;29;20051;-72
2021/04/21 06:27:06;;;;;;;36.03;21.30;;;;;;;;;;4951282;29;20478;-72
2021/04/21 06:29:32;;;;;;;29.88;19.67;;;;;;;;;;4935516;29;20054;-71
2021/04/21 06:32:04;;;;;;;32.35;20.92;;;;;;;;;;4935181;29;20142;-71
2021/04/21 06:34:31;;;;;;;36.13;19.73;;;;;;;;;;4952815;29;20051;-71
2021/04/21 06:36:58;;;;;;;30.95;20.10;;;;;;;;;;4951429;29;20059;-71
2021/04/21 06:39:27;;;;;;;31.77;20.27;;;;;;;;;;4936282;29;20114;-74
2021/04/21 06:42:01;;;;;;;29.42;19.08;;;;;;;;;;4936878;29;20552;-73
2021/04/21 06:44:42;;;;;;;31.95;19.70;;;;;;;;;;4926472;29;20082;-73
2021/04/21 06:47:19;;;;;;;34.17;20.50;;;;;;;;;;4916690;29;20051;-72
2021/04/21 06:49:49;;;;;;;33.50;19.63;;;;;;;;;;4931396;29;20138;-72
2021/04/21 06:52:16;;;;;;;32.72;19.48;;;;;;;;;;4916386;29;20158;-69
2021/04/21 06:54:42;;;;;;;29.00;18.80;;;;;;;;;;4937761;29;20051;-70
2021/04/21 06:57:08;;;;;;;31.42;20.27;;;;;;;;;;4930662;29;20055;-70
2021/04/21 06:59:34;;;;;;;32.38;20.75;;;;;;;;;;4939022;29;20083;-71
2021/04/21 07:02:00;;;;;;;35.22;20.88;;;;;;;;;;4939146;29;20150;-72
2021/04/21 07:04:26;;;;;;;28.88;20.23;;;;;;;;;;4938828;29;20098;-72
2021/04/21 07:06:53;;;;;;;31.05;20.02;;;;;;;;;;4938534;29;20334;-72
2021/04/21 07:09:22;;;;;;;31.33;19.52;;;;;;;;;;4921307;29;20059;-73
2021/04/21 07:12:01;;;;;;;30.77;20.05;;;;;;;;;;4931253;29;20051;-72
2021/04/21 07:14:29;;;;;;;30.55;19.45;;;;;;;;;;4940174;29;20130;-73
2021/04/21 07:16:55;;;;;;;30.40;19.77;;;;;;;;;;4930466;29;20819;-72
2021/04/21 07:19:25;;;;;;;30.77;19.27;;;;;;;;;;4926442;29;20055;-76
2021/04/21 07:21:52;;;;;;;30.27;19.38;;;;;;;;;;4924247;29;20047;-72
2021/04/21 07:24:18;;;;;;;27.92;19.77;;;;;;;;;;4928161;29;20082;-74
2021/04/21 07:26:48;;;;;;;30.85;20.10;;;;;;;;;;4941701;29;20052;-74
2021/04/21 07:29:22;;;;;;;28.88;20.60;;;;;;;;;;4927013;28;20173;-76
2021/04/21 07:31:49;;;;;;;27.50;19.45;;;;;;;;;;4927173;29;20047;-74
2021/04/21 07:34:29;;;;;;;27.83;19.55;;;;;;;;;;4927374;29;20047;-74
2021/04/21 07:36:55;;;;;;;30.30;21.33;;;;;;;;;;4940436;29;20051;-74
2021/04/21 07:39:43;;;;;;;28.70;19.20;;;;;;;;;;4922418;29;20110;-76
2021/04/21 07:42:17;;;;;;;26.88;19.60;;;;;;;;;;4910035;29;20055;-75
2021/04/21 07:44:53;;;;;;;27.88;19.55;;;;;;;;;;4918277;29;20511;-76
2021/04/21 07:47:21;;;;;;;32.60;20.77;;;;;;;;;;4940320;29;20059;-73
2021/04/21 07:49:57;;;;;;;27.75;19.67;;;;;;;;;;4940149;29;20055;-72
2021/04/21 07:52:26;;;;;;;29.05;19.85;;;;;;;;;;4932407;29;20056;-75
2021/04/21 07:55:06;;;;;;;29.38;20.67;;;;;;;;;;4940641;29;20055;-75
2021/04/21 07:57:32;;;;;;;25.15;18.92;;;;;;;;;;4940129;29;20518;-75
2021/04/21 07:59:58;;;;;;;27.17;19.58;;;;;;;;;;4924803;29;20058;-75
2021/04/21 08:02:24;;;;;;;27.25;20.27;;;;;;;;;;4917566;29;20478;-74
2021/04/21 08:04:57;;;;;;;27.25;19.25;;;;;;;;;;4922597;29;20527;-74
2021/04/21 08:07:43;;;;;;;28.45;19.83;;;;;;;;;;4921608;29;20586;-75
2021/04/21 08:10:16;;;;;;;26.08;19.20;;;;;;;;;;4933232;29;20047;-75
2021/04/21 08:12:42;;;;;;;27.42;18.15;;;;;;;;;;4927801;29;20071;-75
2021/04/21 08:15:11;;;;;;;27.58;18.60;;;;;;;;;;4941449;29;20080;-75
2021/04/21 08:17:51;;;;;;;30.60;18.90;;;;;;;;;;4932488;29;20059;-75
2021/04/21 08:20:31;;;;;;;25.75;18.23;;;;;;;;;;4911220;29;20082;-74
2021/04/21 08:22:59;;;;;;;26.58;18.58;;;;;;;;;;4921517;29;20074;-75
2021/04/21 08:25:25;;;;;;;25.55;17.55;;;;;;;;;;4939378;29;20048;-75
2021/04/21 08:27:52;;;;;;;27.60;19.10;;;;;;;;;;4918909;29;20122;-75
2021/04/21 08:30:18;;;;;;;29.48;19.48;;;;;;;;;;4944293;29;20055;-75
2021/04/21 08:32:44;;;;;;;29.00;19.67;;;;;;;;;;4939000;29;20094;-75
2021/04/21 08:35:12;;;;;;;28.02;18.55;;;;;;;;;;4921845;29;20065;-75
2021/04/21 08:37:39;;;;;;;26.33;18.25;;;;;;;;;;4938743;29;20071;-75
2021/04/21 08:40:07;;;;;;;25.13;18.73;;;;;;;;;;4926015;29;20498;-75
2021/04/21 08:42:33;;;;;;;24.75;17.75;;;;;;;;;;4919949;29;20458;-75
2021/04/21 08:44:59;;;;;;;27.13;18.88;;;;;;;;;;4920660;29;20051;-74
2021/04/21 08:47:25;;;;;;;27.70;17.83;;;;;;;;;;4929196;29;20059;-75
2021/04/21 08:49:55;;;;;;;21.38;16.63;;;;;;;;;;4920412;29;20063;-75
2021/04/21 08:52:25;;;;;;;22.42;16.80;;;;;;;;;;4921221;29;20475;-76
2021/04/21 08:54:55;;;;;;;23.50;17.33;;;;;;;;;;4928533;29;20514;-75
2021/04/21 08:57:21;;;;;;;25.23;17.00;;;;;;;;;;4929874;29;20486;-75
2021/04/21 08:59:48;;;;;;;22.88;17.15;;;;;;;;;;4921852;29;20051;-75
2021/04/21 09:02:15;;;;;;;20.65;15.82;;;;;;;;;;4936458;29;20044;-75
2021/04/21 09:04:43;;;;;;;24.95;17.50;;;;;;;;;;4946694;29;20121;-75
2021/04/21 09:07:10;;;;;;;21.63;15.60;;;;;;;;;;4920202;29;20047;-75
2021/04/21 09:09:36;;;;;;;21.48;15.75;;;;;;;;;;4942058;29;20574;-75
2021/04/21 09:12:04;;;;;;;20.48;15.52;;;;;;;;;;4928772;29;20079;-75
2021/04/21 09:14:30;;;;;;;20.50;15.10;;;;;;;;;;4936484;29;20146;-75
2021/04/21 09:16:57;;;;;;;18.55;14.85;;;;;;;;;;4926967;29;20418;-75
2021/04/21 09:19:24;;;;;;;17.60;13.50;;;;;;;;;;4946448;29;20048;-75
2021/04/21 09:22:09;;;;;;;19.17;15.15;;;;;;;;;;4945822;29;20043;-75
2021/04/21 09:24:37;;;;;;;19.55;14.52;;;;;;;;;;4920974;29;20047;-75
2021/04/21 09:27:27;;;;;;;19.45;13.65;;;;;;;;;;4941722;29;20142;-75
2021/04/21 09:30:09;;;;;;;16.23;11.30;;;;;;;;;;4928327;29;20080;-75
2021/04/21 09:32:47;;;;;;;18.02;14.02;;;;;;;;;;4940074;29;20099;-75
2021/04/21 09:35:23;;;;;;;17.10;13.32;;;;;;;;;;4950747;29;20053;-75
2021/04/21 09:38:06;;;;;;;16.65;13.25;;;;;;;;;;4943317;29;20092;-75
2021/04/21 09:40:38;;;;;;;18.25;14.93;;;;;;;;;;4930033;29;20126;-75
2021/04/21 09:43:05;;;;;;;20.17;14.65;;;;;;;;;;4921485;29;20068;-75
2021/04/21 09:45:34;;;;;;;18.95;13.57;;;;;;;;;;4950193;29;20114;-75
2021/04/21 09:48:11;;;;;;;19.85;14.77;;;;;;;;;;4921690;29;20078;-75
2021/04/21 09:50:38;;;;;;;18.02;14.55;;;;;;;;;;4946036;28;20043;-75
2021/04/21 09:53:18;;;;;;;16.63;13.18;;;;;;;;;;4917608;29;20051;-75
2021/04/21 09:55:58;;;;;;;19.80;14.23;;;;;;;;;;4929623;29;20133;-75
2021/04/21 09:58:39;;;;;;;15.90;12.82;;;;;;;;;;4944449;29;20079;-75
2021/04/21 10:01:20;;;;;;;16.92;13.48;;;;;;;;;;4927249;29;20099;-75
2021/04/21 10:04:08;;;;;;;15.45;12.95;;;;;;;;;;4924907;29;20775;-75
2021/04/21 10:06:37;;;;;;;14.68;11.15;;;;;;;;;;4940624;29;20054;-74
2021/04/21 10:09:04;;;;;;;13.38;10.10;;;;;;;;;;4925510;29;20055;-75
2021/04/21 10:11:30;;;;;;;12.32;9.95;;;;;;;;;;4917994;29;20102;-75
2021/04/21 10:13:58;;;;;;;12.38;11.07;;;;;;;;;;4909562;29;20137;-75
2021/04/21 10:16:25;;;;;;;14.27;11.43;;;;;;;;;;4933640;29;20134;-75
2021/04/21 10:18:51;;;;;;;16.95;10.75;;;;;;;;;;4936696;29;20055;-75
2021/04/21 10:21:19;;;;;;;14.93;12.05;;;;;;;;;;4919725;29;20054;-75
2021/04/21 10:23:47;;;;;;;15.45;11.30;;;;;;;;;;4941089;29;20102;-75
2021/04/21 10:26:15;;;;;;;15.65;11.90;;;;;;;;;;4918337;29;20047;-75
2021/04/21 10:28:42;;;;;;;14.32;11.50;;;;;;;;;;4926672;29;20055;-73
2021/04/21 10:31:12;;;;;;;13.93;11.20;;;;;;;;;;4925124;29;20074;-74
2021/04/21 10:33:38;;;;;;;14.27;10.70;;;;;;;;;;4943089;29;20056;-74
2021/04/21 10:36:05;;;;;;;13.80;11.15;;;;;;;;;;4907588;29;20051;-75
2021/04/21 10:38:31;;;;;;;14.20;10.63;;;;;;;;;;4932931;29;20593;-75
2021/04/21 10:41:20;;;;;;;14.02;11.70;;;;;;;;;;4935613;29;20081;-75
2021/04/21 10:43:47;;;;;;;14.60;11.45;;;;;;;;;;4924766;29;20137;-75
2021/04/21 10:46:13;;;;;;;13.00;10.13;;;;;;;;;;4914650;29;20079;-78
2021/04/21 10:48:43;;;;;;;15.80;11.80;;;;;;;;;;4924158;29;20078;-75
2021/04/21 10:51:37;;;;;;;14.05;9.82;;;;;;;;;;4925570;29;20047;-75
2021/04/21 10:54:04;;;;;;;;;;;;;;;;;;4941844;29;20056;-75
2021/04/21 10:56:31;;;;;;;11.77;9.20;;;;;;;;;;4928961;29;19922;-75
2021/04/21 10:58:59;;;;;;;9.77;8.35;;;;;;;;;;4953085;29;20059;-75
2021/04/21 11:01:36;;;;;;;12.30;9.65;;;;;;;;;;4952852;29;20094;-75
2021/04/21 11:04:04;;;;;;;12.38;9.25;;;;;;;;;;4936849;29;20399;-76
2021/04/21 11:06:39;;;;;;;11.45;9.70;;;;;;;;;;4936429;29;20492;-75
2021/04/21 11:09:09;;;;;;;9.77;8.43;;;;;;;;;;4953481;29;20525;-75
2021/04/21 11:11:37;;;;;;;11.20;9.30;;;;;;;;;;4952699;29;20097;-75
2021/04/21 11:14:03;;;;;;;11.18;9.68;;;;;;;;;;4952518;29;20090;-75
2021/04/21 11:16:29;;;;;;;12.75;10.13;;;;;;;;;;4952092;29;20058;-75
2021/04/21 11:19:19;;;;;;;11.82;8.50;;;;;;;;;;4953406;29;20106;-75
2021/04/21 11:22:27;;;;;;;10.07;7.80;;;;;;;;;;4952237;29;20062;-75
2021/04/21 11:25:23;;;;;;;12.30;8.73;;;;;;;;;;4936490;29;20062;-75
2021/04/21 11:27:49;;;;;;;13.15;10.10;;;;;;;;;;4952640;29;20047;-75
2021/04/21 11:30:34;;;;;;;12.60;9.73;;;;;;;;;;4952115;29;20103;-74
2021/04/21 11:33:00;;;;;;;10.13;9.10;;;;;;;;;;4953566;29;20055;-74
2021/04/21 11:35:32;;;;;;;12.02;9.05;;;;;;;;;;4936005;29;20126;-75
2021/04/21 11:37:58;;;;;;;12.55;9.10;;;;;;;;;;4951919;29;20486;-75
2021/04/21 11:40:33;;;;;;;12.40;9.50;;;;;;;;;;4918257;29;20094;-74
2021/04/21 11:43:15;;;;;;;10.77;8.80;;;;;;;;;;4934456;29;20048;-74
2021/04/21 11:45:42;;;;;;;11.07;8.55;;;;;;;;;;4932749;29;20059;-75
2021/04/21 11:48:09;;;;;;;9.10;7.45;;;;;;;;;;4934578;29;20078;-75
2021/04/21 11:50:42;;;;;;;11.63;8.05;;;;;;;;;;4934126;29;20056;-76
2021/04/21 11:53:09;;;;;;;10.02;7.93;;;;;;;;;;4932358;29;20043;-74
2021/04/21 11:55:44;;;;;;;11.13;7.85;;;;;;;;;;4952790;29;20589;-75
2021/04/21 11:58:28;;;;;;;8.77;7.00;;;;;;;;;;4953529;29;20106;-75
2021/04/21 12:01:02;;;;;;;11.07;7.97;;;;;;;;;;4936295;29;20130;-74
2021/04/21 12:03:30;;;;;;;8.73;7.18;;;;;;;;;;4953324;29;20490;-74
2021/04/21 12:05:58;;;;;;;9.48;7.00;;;;;;;;;;4951107;29;20051;-75
2021/04/21 12:08:26;;;;;;;7.82;6.75;;;;;;;;;;4952140;29;20051;-74
2021/04/21 12:10:53;;;;;;;8.40;6.82;;;;;;;;;;4953252;29;20085;-76
2021/04/21 12:13:27;;;;;;;11.43;7.43;;;;;;;;;;4953266;29;20119;-75
2021/04/21 12:15:55;;;;;;;8.30;6.45;;;;;;;;;;4954036;28;20111;-74
2021/04/21 12:18:25;;;;;;;7.28;6.22;;;;;;;;;;4955966;29;20055;-75
2021/04/21 12:20:51;;;;;;;8.02;6.18;;;;;;;;;;4939947;29;20063;-75
2021/04/21 12:23:25;;;;;;;8.43;6.93;;;;;;;;;;4957139;29;20047;-75
2021/04/21 12:25:51;;;;;;;7.30;5.47;;;;;;;;;;4956228;29;20125;-75
2021/04/21 12:28:17;;;;;;;9.55;7.18;;;;;;;;;;4955586;29;20055;-75
2021/04/21 12:30:43;;;;;;;9.77;7.70;;;;;;;;;;4956800;29;20059;-75
2021/04/21 12:33:11;;;;;;;10.80;8.02;;;;;;;;;;4939973;29;20051;-75
2021/04/21 12:35:37;;;;;;;9.60;7.28;;;;;;;;;;4939221;29;20062;-75
2021/04/21 12:38:03;;;;;;;9.90;8.55;;;;;;;;;;4940034;29;20110;-74
2021/04/21 12:40:31;;;;;;;7.30;6.50;;;;;;;;;;4939914;29;20126;-75
2021/04/21 12:43:18;;;;;;;8.90;7.18;;;;;;;;;;4955542;29;20051;-75
2021/04/21 12:45:45;;;;;;;8.27;7.38;;;;;;;;;;4954799;29;20414;-75
2021/04/21 12:48:27;;;;;;;8.35;7.45;;;;;;;;;;4956699;29;20094;-75
2021/04/21 12:50:57;;;;;;;10.95;6.70;;;;;;;;;;4956657;29;20063;-75
2021/04/21 12:53:30;;;;;;;7.75;5.57;;;;;;;;;;4956739;29;20051;-75
2021/04/21 12:56:12;;;;;;;7.82;6.35;;;;;;;;;;4954791;29;20110;-76
2021/04/21 12:58:41;;;;;;;7.15;5.80;;;;;;;;;;4956372;29;20055;-76
2021/04/21 13:01:19;;;;;;;6.47;5.82;;;;;;;;;;4939455;29;20589;-75
2021/04/21 13:03:56;;;;;;;7.18;6.47;;;;;;;;;;4956687;29;20126;-74
2021/04/21 13:06:49;;;;;;;7.80;6.97;;;;;;;;;;4938873;29;20077;-76
2021/04/21 13:09:20;;;;;;;7.55;6.07;;;;;;;;;;4939209;29;20047;-75
2021/04/21 13:11:48;;;;;;;7.80;6.18;;;;;;;;;;4955750;29;20047;-75
2021/04/21 13:14:15;;;;;;;6.55;5.95;;;;;;;;;;4956055;29;20114;-75
2021/04/21 13:16:49;;;;;;;7.03;6.40;;;;;;;;;;4954972;29;20058;-76
2021/04/21 13:19:24;;;;;;;7.30;6.53;;;;;;;;;;4938964;29;20046;-73
2021/04/21 13:22:13;;;;;;;7.82;6.82;;;;;;;;;;4939113;29;20131;-73
2021/04/21 13:24:48;;;;;;;6.60;6.00;;;;;;;;;;4955468;29;20066;-74
2021/04/21 13:27:18;;;;;;;7.75;6.07;;;;;;;;;;4955095;28;20313;-73
2021/04/21 13:29:52;;;;;;;7.45;6.70;;;;;;;;;;4955540;29;20051;-75
2021/04/21 13:32:18;;;;;;;7.20;6.25;;;;;;;;;;4953593;29;20106;-76
2021/04/21 13:34:45;;;;;;;6.55;5.95;;;;;;;;;;4953434;29;20106;-75
2021/04/21 13:37:11;;;;;;;7.93;7.13;;;;;;;;;;4953168;29;20055;-74
2021/04/21 13:39:43;;;;;;;7.80;6.78;;;;;;;;;;4953578;29;20055;-75
2021/04/21 13:42:09;;;;;;;8.10;7.20;;;;;;;;;;4953850;29;20535;-75
2021/04/21 13:44:36;;;;;;;8.23;7.43;;;;;;;;;;4952963;29;20055;-75
2021/04/21 13:47:02;;;;;;;8.50;7.25;;;;;;;;;;4952822;29;20079;-74
2021/04/21 13:49:28;;;;;;;8.50;7.43;;;;;;;;;;4953546;29;20130;-74
2021/04/21 13:51:54;;;;;;;8.30;6.10;;;;;;;;;;4953364;29;20413;-75
2021/04/21 13:54:20;;;;;;;7.90;6.20;;;;;;;;;;4950480;29;20051;-75
2021/04/21 13:56:46;;;;;;;6.25;5.30;;;;;;;;;;4944737;29;20134;-76
2021/04/21 13:59:12;;;;;;;8.73;6.28;;;;;;;;;;4950871;29;20051;-77
2021/04/21 14:02:03;;;;;;;5.72;4.93;;;;;;;;;;4954202;29;20055;-73
2021/04/21 14:04:33;;;;;;;6.90;5.47;;;;;;;;;;4928992;29;20059;-75
2021/04/21 14:07:02;;;;;;;6.45;5.63;;;;;;;;;;4943776;29;20059;-73
2021/04/21 14:09:28;;;;;;;6.50;5.80;;;;;;;;;;4940856;29;20127;-74
2021/04/21 14:11:55;;;;;;;7.05;5.57;;;;;;;;;;4911759;29;20063;-74
2021/04/21 14:14:21;;;;;;;6.25;5.55;;;;;;;;;;4944853;29;20459;-75
2021/04/21 14:16:47;;;;;;;6.53;5.03;;;;;;;;;;4927379;29;20127;-74
2021/04/21 14:19:13;;;;;;;5.85;4.82;;;;;;;;;;4943783;29;20095;-74
2021/04/21 14:21:42;;;;;;;5.40;4.90;;;;;;;;;;4925061;29;20086;-72
2021/04/21 14:24:08;;;;;;;7.00;5.35;;;;;;;;;;4939476;29;20463;-70
2021/04/21 14:26:35;;;;;;;4.40;4.00;;;;;;;;;;4941881;29;20472;-72
2021/04/21 14:29:03;;;;;;;5.63;5.10;;;;;;;;;;4927467;29;20598;-72
2021/04/21 14:31:29;;;;;;;6.50;4.65;;;;;;;;;;4911522;29;20047;-72
2021/04/21 14:33:55;;;;;;;5.38;4.88;;;;;;;;;;4933302;29;20106;-72
2021/04/21 14:36:22;;;;;;;5.47;4.40;;;;;;;;;;4941856;29;20167;-72
2021/04/21 14:38:49;;;;;;;5.32;4.82;;;;;;;;;;4940143;29;20638;-72
2021/04/21 14:41:16;;;;;;;6.43;5.30;;;;;;;;;;4940551;29;20052;-72
2021/04/21 14:43:42;;;;;;;5.88;4.70;;;;;;;;;;4942948;29;20058;-72
2021/04/21 14:46:08;;;;;;;5.35;4.70;;;;;;;;;;4939734;29;20087;-72
2021/04/21 14:48:34;;;;;;;5.15;4.20;;;;;;;;;;4940524;29;20128;-72
2021/04/21 14:51:00;;;;;;;5.30;4.20;;;;;;;;;;4942632;29;20095;-72
2021/04/21 14:53:26;;;;;;;5.75;4.78;;;;;;;;;;4943662;29;20090;-72
2021/04/21 14:56:11;;;;;;;6.90;4.45;;;;;;;;;;4939579;29;20059;-72
2021/04/21 14:58:37;;;;;;;5.40;4.10;;;;;;;;;;4923403;29;20078;-72